createdAt,value
2022-11-07T00:04:18.374Z,100.00
2022-11-07T00:09:23.223Z,100.00
2022-11-07T00:14:30.744Z,100.00
2022-11-07T00:19:35.698Z,100.00
2022-11-07T00:24:40.831Z,100.00
2022-11-07T00:29:48.305Z,100.00
2022-11-07T00:34:53.085Z,100.00
2022-11-07T00:39:58.010Z,100.00
2022-11-07T00:45:05.437Z,100.00
2022-11-07T00:50:13.856Z,100.00
2022-11-07T00:55:19.187Z,100.00
2022-11-07T01:00:26.690Z,100.00
2022-11-07T01:05:31.515Z,100.00
2022-11-07T01:10:36.587Z,100.00
2022-11-07T01:15:45.895Z,100.00
2022-11-07T01:20:51.833Z,100.00
2022-11-07T01:25:56.797Z,100.00
2022-11-07T01:31:05.989Z,100.00
2022-11-07T01:36:13.641Z,100.00
2022-11-07T01:41:24.846Z,100.00
2022-11-07T01:46:35.701Z,100.00
2022-11-07T01:51:44.551Z,100.00
2022-11-07T01:56:51.563Z,100.00
2022-11-07T02:01:59.186Z,100.00
2022-11-07T02:07:10.515Z,100.00
2022-11-07T02:12:16.064Z,100.00
2022-11-07T02:17:23.700Z,100.00
2022-11-07T02:22:39.300Z,100.00
2022-11-07T02:27:48.471Z,100.00
2022-11-07T02:32:53.753Z,100.00
2022-11-07T02:38:01.194Z,100.00
2022-11-07T02:43:12.709Z,100.00
2022-11-07T02:48:18.006Z,100.00
2022-11-07T02:53:22.910Z,100.00
2022-11-07T02:58:30.427Z,100.00
2022-11-07T03:03:35.690Z,100.00
2022-11-07T03:08:40.790Z,100.00
2022-11-07T03:13:48.640Z,100.00
2022-11-07T03:18:53.482Z,100.00
2022-11-07T03:23:58.280Z,100.00
2022-11-07T03:29:06.259Z,100.00
2022-11-07T03:34:11.278Z,100.00
2022-11-07T03:39:16.054Z,100.00
2022-11-07T03:44:23.534Z,100.00
2022-11-07T03:49:28.368Z,100.00
2022-11-07T03:54:33.314Z,100.00
2022-11-07T03:59:40.875Z,100.00
2022-11-07T04:04:45.748Z,100.00
2022-11-07T04:09:50.487Z,100.00
2022-11-07T04:15:10.359Z,100.00
2022-11-07T04:20:18.076Z,100.00
2022-11-07T04:25:44.544Z,100.00
2022-11-07T04:30:51.959Z,100.00
2022-11-07T04:35:56.738Z,100.00
2022-11-07T04:41:01.898Z,100.00
2022-11-07T04:46:09.307Z,100.00
2022-11-07T04:51:18.312Z,100.00
2022-11-07T04:56:34.438Z,100.00
2022-11-07T05:01:42.377Z,100.00
2022-11-07T05:06:50.723Z,100.00
2022-11-07T05:11:56.276Z,100.00
2022-11-07T05:17:05.064Z,100.00
2022-11-07T05:22:23.004Z,100.00
2022-11-07T05:27:31.207Z,100.00
2022-11-07T05:32:43.835Z,100.00
2022-11-07T05:37:49.352Z,100.00
2022-11-07T05:42:57.028Z,100.00
2022-11-07T05:48:09.947Z,100.00
2022-11-07T05:53:17.297Z,100.00
2022-11-07T05:58:23.547Z,100.00
2022-11-07T06:03:31.208Z,100.00
2022-11-07T06:08:35.931Z,100.00
2022-11-07T06:13:40.816Z,100.00
2022-11-07T06:18:48.138Z,100.00
2022-11-07T06:23:52.946Z,100.00
2022-11-07T06:28:59.017Z,100.00
2022-11-07T06:34:06.379Z,100.00
2022-11-07T06:39:11.281Z,100.00
2022-11-07T06:44:16.298Z,100.00
2022-11-07T06:49:23.764Z,100.00
2022-11-07T06:54:28.658Z,100.00
2022-11-07T06:59:33.395Z,100.00
2022-11-07T07:04:41.068Z,100.00
2022-11-07T07:09:47.021Z,100.00
2022-11-07T07:14:52.443Z,100.00
2022-11-07T07:19:59.849Z,100.00
2022-11-07T07:25:04.846Z,100.00
2022-11-07T07:30:12.079Z,100.00
2022-11-07T07:35:19.750Z,100.00
2022-11-07T07:40:25.445Z,100.00
2022-11-07T07:45:30.268Z,100.00
2022-11-07T07:50:38.596Z,100.00
2022-11-07T07:55:43.581Z,100.00
2022-11-07T08:00:50.465Z,100.00
2022-11-07T08:06:00.315Z,100.00
2022-11-07T08:11:07.097Z,100.00
2022-11-07T08:16:17.725Z,100.00
2022-11-07T08:22:00.115Z,100.00
2022-11-07T08:27:40.132Z,100.00
2022-11-07T08:32:49.069Z,100.00
2022-11-07T08:37:59.424Z,100.00
2022-11-07T08:43:08.137Z,100.00
2022-11-07T08:48:14.079Z,90.09
2022-11-07T08:53:25.326Z,99.43
2022-11-07T08:58:30.671Z,100.00
2022-11-07T09:03:50.401Z,100.00
2022-11-07T09:09:03.492Z,100.00
2022-11-07T09:14:12.201Z,87.88
2022-11-07T09:19:19.322Z,85.07
2022-11-07T09:24:28.930Z,89.26
2022-11-07T09:29:36.974Z,76.66
2022-11-07T09:34:48.312Z,76.65
2022-11-07T09:39:59.997Z,78.74
2022-11-07T09:45:14.642Z,77.79
2022-11-07T09:50:27.796Z,79.77
2022-11-07T09:55:42.090Z,80.88
2022-11-07T10:00:47.314Z,81.13
2022-11-07T10:06:02.192Z,76.95
2022-11-07T10:11:17.066Z,76.21
2022-11-07T10:16:31.551Z,74.91
2022-11-07T10:21:46.259Z,78.43
2022-11-07T10:26:53.861Z,74.36
2022-11-07T10:32:08.513Z,74.89
2022-11-07T10:37:15.194Z,76.46
2022-11-07T10:42:25.617Z,76.79
2022-11-07T10:47:33.066Z,81.10
2022-11-07T10:52:37.990Z,79.47
2022-11-07T10:57:46.617Z,79.54
2022-11-07T11:02:52.550Z,76.95
2022-11-07T11:07:59.105Z,73.87
2022-11-07T11:13:06.833Z,79.64
2022-11-07T11:18:20.857Z,79.12
2022-11-07T11:23:27.555Z,76.45
2022-11-07T11:28:46.022Z,76.31
2022-11-07T11:33:57.034Z,77.42
2022-11-07T11:39:05.983Z,77.41
2022-11-07T11:44:22.455Z,74.53
2022-11-07T11:49:35.478Z,77.02
2022-11-07T11:54:40.642Z,75.20
2022-11-07T12:00:09.182Z,78.08
2022-11-07T12:05:26.850Z,78.03
2022-11-07T12:10:37.770Z,80.01
2022-11-07T12:15:54.918Z,81.28
2022-11-07T12:21:12.377Z,80.35
2022-11-07T12:26:22.561Z,81.30
2022-11-07T12:32:10.180Z,81.54
2022-11-07T12:37:52.258Z,81.74
2022-11-07T12:43:18.142Z,83.61
2022-11-07T12:49:01.511Z,83.41
2022-11-07T12:54:31.033Z,82.08
2022-11-07T12:59:39.944Z,81.92
2022-11-07T13:04:56.339Z,79.78
2022-11-07T13:10:07.704Z,83.90
2022-11-07T13:15:15.935Z,84.09
2022-11-07T13:20:34.292Z,83.51
2022-11-07T13:25:40.832Z,83.60
2022-11-07T13:30:57.067Z,83.64
2022-11-07T13:36:16.919Z,84.50
2022-11-07T13:41:23.466Z,84.71
2022-11-07T13:46:34.833Z,85.18
2022-11-07T13:51:46.146Z,85.97
2022-11-07T13:56:57.867Z,86.41
2022-11-07T14:02:03.396Z,86.45
2022-11-07T14:07:12.343Z,86.86
2022-11-07T14:12:24.732Z,86.46
2022-11-07T14:17:35.943Z,85.49
2022-11-07T14:22:51.862Z,87.11
2022-11-07T14:27:57.756Z,88.76
2022-11-07T14:33:05.940Z,88.09
2022-11-07T14:38:22.529Z,88.15
2022-11-07T14:43:28.677Z,88.37
2022-11-07T14:48:34.774Z,88.55
2022-11-07T14:53:50.822Z,88.55
2022-11-07T14:58:59.331Z,88.58
2022-11-07T15:04:20.565Z,88.00
2022-11-07T15:09:40.931Z,88.57
2022-11-07T15:14:48.663Z,88.58
2022-11-07T15:20:01.983Z,89.63
2022-11-07T15:25:35.613Z,88.34
2022-11-07T15:30:41.246Z,87.98
2022-11-07T15:35:47.173Z,87.64
2022-11-07T15:40:55.202Z,87.76
2022-11-07T15:46:04.519Z,88.13
2022-11-07T15:51:11.593Z,88.58
2022-11-07T15:56:23.384Z,89.01
2022-11-07T16:01:31.488Z,93.19
2022-11-07T16:06:36.426Z,94.35
2022-11-07T16:17:23.303Z,97.53
2022-11-07T16:22:36.490Z,98.44
2022-11-07T16:28:02.297Z,98.33
2022-11-07T16:33:07.972Z,97.58
2022-11-07T16:38:21.296Z,97.14
2022-11-07T16:43:30.195Z,96.92
2022-11-07T16:48:39.584Z,96.98
2022-11-07T16:53:45.030Z,96.27
2022-11-07T16:58:53.079Z,96.56
2022-11-07T17:03:58.331Z,95.12
2022-11-07T17:09:13.147Z,94.41
2022-11-07T17:14:20.896Z,93.62
2022-11-07T17:19:30.194Z,93.49
2022-11-07T17:24:37.232Z,93.74
2022-11-07T17:29:45.612Z,93.22
2022-11-07T17:35:17.701Z,93.39
2022-11-07T17:40:23.056Z,93.71
2022-11-07T17:45:32.109Z,94.37
2022-11-07T17:50:36.971Z,95.04
2022-11-07T17:55:41.910Z,95.36
2022-11-07T18:00:49.220Z,95.76
2022-11-07T18:05:54.129Z,96.71
2022-11-07T18:11:03.433Z,97.07
2022-11-07T18:16:17.595Z,97.47
2022-11-07T18:21:22.859Z,98.08
2022-11-07T18:26:33.651Z,98.23
2022-11-07T18:31:43.508Z,99.75
2022-11-07T18:36:49.091Z,100.00
2022-11-07T18:41:55.188Z,100.00
2022-11-07T18:47:02.622Z,100.00
2022-11-07T18:52:07.675Z,100.00
2022-11-07T18:57:12.711Z,100.00
2022-11-07T19:02:20.301Z,100.00
2022-11-07T19:07:25.138Z,100.00
2022-11-07T19:12:30.918Z,100.00
2022-11-07T19:17:40.072Z,100.00
2022-11-07T19:22:44.884Z,100.00
2022-11-07T19:27:51.722Z,100.00
2022-11-07T19:32:59.580Z,100.00
2022-11-07T19:38:08.658Z,100.00
2022-11-07T19:43:15.226Z,100.00
2022-11-07T19:48:23.339Z,100.00
2022-11-07T19:53:28.372Z,100.00
2022-11-07T19:58:33.089Z,100.00
2022-11-07T20:03:40.807Z,100.00
2022-11-07T20:08:46.436Z,100.00
2022-11-07T20:13:52.665Z,100.00
2022-11-07T20:19:00.155Z,100.00
2022-11-07T20:24:06.493Z,100.00
2022-11-07T20:29:11.962Z,100.00
2022-11-07T20:34:22.314Z,100.00
2022-11-07T20:39:27.221Z,100.00
2022-11-07T20:44:32.013Z,100.00
2022-11-07T20:49:39.543Z,100.00
2022-11-07T20:54:44.950Z,100.00
2022-11-07T20:59:49.747Z,100.00
2022-11-07T21:05:16.793Z,100.00
2022-11-07T21:10:21.942Z,100.00
2022-11-07T21:15:26.905Z,100.00
2022-11-07T21:20:34.458Z,100.00
2022-11-07T21:25:43.850Z,100.00
2022-11-07T21:31:00.481Z,100.00
2022-11-07T21:36:11.792Z,100.00
2022-11-07T21:41:18.423Z,100.00
2022-11-07T21:46:25.567Z,100.00
2022-11-07T21:51:35.180Z,100.00
2022-11-07T21:56:42.631Z,100.00
2022-11-07T22:01:48.940Z,100.00
2022-11-07T22:06:56.673Z,100.00
2022-11-07T22:12:01.465Z,100.00
2022-11-07T22:17:07.741Z,100.00
2022-11-07T22:22:15.063Z,100.00
2022-11-07T22:27:19.964Z,100.00
2022-11-07T22:32:24.898Z,100.00
2022-11-07T22:37:32.743Z,100.00
2022-11-07T22:42:39.406Z,100.00
2022-11-07T22:47:45.549Z,100.00
2022-11-07T22:52:55.752Z,100.00
2022-11-07T22:58:00.850Z,100.00
2022-11-07T23:03:05.986Z,100.00
2022-11-07T23:08:13.662Z,100.00
2022-11-07T23:13:18.628Z,100.00
2022-11-07T23:18:23.377Z,100.00
2022-11-07T23:23:33.084Z,100.00
2022-11-07T23:28:37.943Z,100.00
2022-11-07T23:33:45.563Z,100.00
2022-11-07T23:38:54.050Z,100.00
2022-11-07T23:43:59.088Z,100.00
2022-11-07T23:49:16.243Z,100.00
2022-11-07T23:54:48.212Z,100.00
